Time;durP1;ratioP1;P1;durP2;ratioP2;P2;SDS_P1;SDS_P2;PMS_P1;PMS_P2;Temp;Humidity;BMP_temperature;BMP_pressure;BME280_temperature;BME280_humidity;BME280_pressure;Samples;Min_cycle;Max_cycle;Signal;HPM_P1;HPM_P2
2022/03/24 00:01:41;;;;;;;112.82;49.72;;;;;;;-0.82;64.82;98583.06;10331310;28;20116;-60
2022/03/24 00:06:40;;;;;;;105.90;49.35;;;;;;;-0.60;65.49;98614.88;10330568;28;20030;-60
2022/03/24 00:11:40;;;;;;;113.78;52.53;;;;;;;-0.62;65.61;98611.34;10331222;28;20069;-60
2022/03/24 00:16:39;;;;;;;115.07;60.72;;;;;;;-0.69;65.82;98596.50;10330882;28;20065;-60
2022/03/24 00:21:38;;;;;;;116.75;57.90;;;;;;;-0.73;66.20;98586.94;10331202;28;20095;-60
2022/03/24 00:26:37;;;;;;;121.00;59.95;;;;;;;-0.78;66.62;98575.59;10330652;28;20018;-60
2022/03/24 00:31:36;;;;;;;;;;;;;;;-0.81;67.43;98574.63;10331212;28;20072;-60
2022/03/24 00:36:36;;;;;;;202.75;92.47;;;;;;;-0.84;67.67;98566.81;10330741;28;19920;-60
2022/03/24 00:41:35;;;;;;;180.70;90.93;;;;;;;-0.81;67.34;98564.44;10330704;28;20068;-60
2022/03/24 00:46:34;;;;;;;119.50;63.60;;;;;;;-1.08;66.98;98527.19;10329168;28;20146;-60
2022/03/24 00:51:33;;;;;;;106.35;58.00;;;;;;;-0.87;67.28;98558.13;10330342;28;20030;-60
2022/03/24 00:56:32;;;;;;;91.00;50.35;;;;;;;-1.20;66.92;98551.97;10330221;28;20032;-60
2022/03/24 01:01:31;;;;;;;87.30;46.88;;;;;;;-1.00;67.20;98559.09;10330565;28;20468;-60
2022/03/24 01:06:30;;;;;;;80.03;42.17;;;;;;;-1.08;67.33;98542.50;10330164;28;20030;-60
2022/03/24 01:11:29;;;;;;;76.75;40.25;;;;;;;-1.18;67.36;98535.13;10329815;28;20497;-60
2022/03/24 01:16:28;;;;;;;55.20;31.30;;;;;;;-1.29;67.40;98540.44;10330771;28;20103;-59
2022/03/24 01:21:27;;;;;;;61.58;27.80;;;;;;;-1.43;67.93;98515.88;10337507;28;20065;-59
2022/03/24 01:26:26;;;;;;;56.90;30.92;;;;;;;-1.46;68.23;98528.44;10337382;28;20149;-59
2022/03/24 01:31:25;;;;;;;69.78;36.33;;;;;;;-1.49;68.46;98521.50;10336944;28;20120;-59
2022/03/24 01:36:24;;;;;;;69.25;35.13;;;;;;;-2.01;68.42;98433.56;10336790;28;20069;-59
2022/03/24 01:41:23;;;;;;;44.92;26.35;;;;;;;-1.68;68.42;98501.72;10336843;28;20061;-59
2022/03/24 01:46:23;;;;;;;45.72;22.85;;;;;;;-1.62;68.73;98503.72;10337356;28;20084;-59
2022/03/24 01:51:22;;;;;;;59.95;28.63;;;;;;;-1.69;68.64;98489.78;10336460;28;20075;-59
2022/03/24 01:56:21;;;;;;;57.40;33.15;;;;;;;-1.65;68.78;98494.25;10335813;28;20042;-59
2022/03/24 02:01:30;;;;;;;69.43;36.38;;;;;;;-1.69;69.53;98497.41;10336187;28;20517;-59
2022/03/24 02:06:29;;;;;;;76.93;41.83;;;;;;;-1.78;70.08;98483.28;10336499;28;20069;-59
2022/03/24 02:11:28;;;;;;;40.65;18.77;;;;;;;-1.97;69.76;98450.78;10335790;28;20044;-59
2022/03/24 02:16:34;;;;;;;138.23;70.90;;;;;;;-1.80;69.86;98482.28;10335045;28;20466;-58
2022/03/24 02:21:33;;;;;;;60.90;33.95;;;;;;;-1.94;70.37;98471.31;10335427;28;20072;-59
2022/03/24 02:26:35;;;;;;;68.60;38.30;;;;;;;-2.09;70.05;98439.09;10335084;28;20025;-59
2022/03/24 02:31:38;;;;;;;35.95;19.30;;;;;;;-1.90;70.13;98469.03;10334592;28;20487;-61
2022/03/24 02:36:38;;;;;;;79.18;41.13;;;;;;;-1.90;70.59;98473.25;10335220;28;20547;-59
2022/03/24 02:42:04;;;;;;;72.13;39.45;;;;;;;-1.96;70.55;98472.88;10334126;28;20073;-59
2022/03/24 02:47:06;;;;;;;72.50;38.40;;;;;;;-1.95;71.12;98470.44;10333709;28;20467;-59
2022/03/24 02:52:07;;;;;;;69.97;38.00;;;;;;;-2.51;70.52;98366.25;10334453;28;20514;-59
2022/03/24 02:57:07;;;;;;;67.95;35.60;;;;;;;-1.95;70.78;98450.09;10333702;28;20148;-59
2022/03/24 03:02:11;;;;;;;62.08;33.20;;;;;;;-2.02;70.99;98457.28;10333791;28;20068;-59
2022/03/24 03:07:11;;;;;;;74.43;37.35;;;;;;;-2.09;71.15;98444.19;10332201;28;20064;-61
2022/03/24 03:12:11;;;;;;;87.63;43.78;;;;;;;-2.28;71.39;98403.19;10333352;28;20076;-59
2022/03/24 03:17:11;;;;;;;78.35;41.13;;;;;;;-2.01;70.87;98449.72;10333046;28;20065;-59
2022/03/24 03:22:10;;;;;;;;;;;;;;;-2.08;71.63;98463.75;10333524;28;20068;-60
2022/03/24 03:27:09;;;;;;;91.72;47.72;;;;;;;-2.87;71.57;98321.72;10333052;28;19959;-59
2022/03/24 03:32:09;;;;;;;65.50;33.00;;;;;;;-2.24;71.47;98450.91;10332667;28;20044;-59
2022/03/24 03:37:09;;;;;;;123.93;68.40;;;;;;;-2.22;71.84;98473.84;10332403;28;20061;-61
2022/03/24 03:42:08;;;;;;;45.53;25.42;;;;;;;-2.35;71.58;98459.53;10332086;28;20068;-60
2022/03/24 03:47:07;;;;;;;49.78;27.42;;;;;;;-2.65;71.99;98423.84;10332073;28;20081;-60
2022/03/24 03:52:07;;;;;;;55.65;29.08;;;;;;;-2.41;71.79;98459.16;10332338;28;20079;-60
2022/03/24 03:57:06;;;;;;;;;;;;;;;-2.40;72.01;98478.72;10331625;28;20065;-60
2022/03/24 04:02:05;;;;;;;48.85;28.30;;;;;;;-2.45;72.30;98480.06;10331860;28;19940;-60
2022/03/24 04:07:04;;;;;;;57.13;31.60;;;;;;;-2.58;72.83;98464.09;10331286;28;20471;-60
2022/03/24 04:12:04;;;;;;;99.38;48.03;;;;;;;-2.68;72.47;98464.31;10331253;28;20064;-60
2022/03/24 04:17:03;;;;;;;74.85;40.38;;;;;;;-3.29;73.00;98362.34;10330755;28;20506;-59
2022/03/24 04:22:03;;;;;;;69.38;42.75;;;;;;;-2.75;73.85;98470.66;10330785;28;20068;-60
2022/03/24 04:27:02;;;;;;;78.47;43.08;;;;;;;-3.06;74.25;98431.44;10331292;28;20061;-60
2022/03/24 04:32:01;;;;;;;77.95;41.85;;;;;;;-3.67;73.99;98345.59;10330594;28;20518;-60
2022/03/24 04:37:00;;;;;;;59.90;34.53;;;;;;;-2.95;73.97;98453.28;10330686;28;20498;-60
2022/03/24 04:41:59;;;;;;;61.53;34.35;;;;;;;-2.78;73.42;98475.56;10330666;28;20094;-60
2022/03/24 04:46:58;;;;;;;60.15;33.92;;;;;;;-2.70;73.37;98464.22;10331092;28;20131;-60
2022/03/24 04:51:57;;;;;;;66.85;35.03;;;;;;;-2.61;73.42;98463.91;10332124;28;20100;-60
2022/03/24 04:56:57;;;;;;;64.13;35.30;;;;;;;-2.56;73.87;98466.72;10338105;28;20408;-61
2022/03/24 05:01:56;;;;;;;72.68;40.83;;;;;;;-2.58;73.78;98445.44;10338308;28;20522;-62
2022/03/24 05:06:55;;;;;;;70.72;39.83;;;;;;;-2.32;73.95;98459.72;10310913;28;20065;-61
2022/03/24 05:11:54;;;;;;;81.68;45.17;;;;;;;-2.19;73.59;98464.78;10336931;28;20029;-61
2022/03/24 05:16:53;;;;;;;91.47;53.25;;;;;;;-2.03;73.58;98455.50;10337141;28;20544;-60
2022/03/24 05:21:53;;;;;;;430.20;203.38;;;;;;;-1.87;73.44;98464.16;10337668;28;20060;-62
2022/03/24 05:26:52;;;;;;;186.35;97.53;;;;;;;-2.24;73.15;98377.19;10337075;28;20069;-62
2022/03/24 05:31:51;;;;;;;106.95;55.17;;;;;;;-1.66;72.88;98472.16;10206509;28;20084;-60
2022/03/24 05:36:51;;;;;;;82.32;45.88;;;;;;;-1.60;73.03;98465.66;10204328;28;20058;-60
2022/03/24 05:41:50;;;;;;;146.90;83.95;;;;;;;-1.47;72.90;98465.56;10283133;28;20073;-62
2022/03/24 05:46:49;;;;;;;343.13;162.48;;;;;;;-1.41;72.15;98440.47;10304975;28;20045;-62
2022/03/24 05:51:49;;;;;;;60.17;34.58;;;;;;;-1.19;72.82;98469.69;10335815;28;20475;-60
2022/03/24 05:56:49;;;;;;;59.45;37.15;;;;;;;-1.10;72.24;98471.06;10335725;28;20509;-60
2022/03/24 06:01:48;;;;;;;73.00;39.97;;;;;;;-1.04;72.46;98443.41;10330878;28;20064;-60
2022/03/24 06:06:50;;;;;;;65.95;42.78;;;;;;;-0.74;72.58;98461.19;10332124;28;20057;-60
2022/03/24 06:11:49;;;;;;;66.75;39.90;;;;;;;-0.49;71.93;98460.81;10335399;28;20071;-60
2022/03/24 06:16:48;;;;;;;;;;;;;;;-0.34;72.02;98452.25;10332101;28;20499;-60
2022/03/24 06:21:48;;;;;;;77.30;37.55;;;;;;;-0.24;71.40;98441.72;10335649;28;20379;-60
2022/03/24 06:26:47;;;;;;;66.20;32.00;;;;;;;-0.08;71.94;98444.28;10334967;28;20063;-60
2022/03/24 06:31:46;;;;;;;;;;;;;;;0.13;71.17;98441.09;10328906;28;20060;-60
2022/03/24 06:36:45;;;;;;;62.20;37.72;;;;;;;0.24;71.13;98427.16;10330577;28;19924;-60
2022/03/24 06:41:44;;;;;;;71.35;41.03;;;;;;;0.51;70.39;98422.56;10329328;28;20021;-60
2022/03/24 06:46:43;;;;;;;;;;;;;;;0.68;69.05;98431.03;10331917;28;20080;-61
2022/03/24 06:51:42;;;;;;;67.70;42.15;;;;;;;0.81;68.32;98418.06;10333881;28;19971;-61
2022/03/24 06:56:41;;;;;;;75.22;48.22;;;;;;;1.12;68.15;98429.75;10333999;28;20029;-61
2022/03/24 07:01:40;;;;;;;79.22;48.25;;;;;;;1.32;67.80;98421.31;10332811;28;20057;-61
2022/03/24 07:06:40;;;;;;;79.25;49.00;;;;;;;1.31;67.39;98376.09;10322331;28;20459;-61
2022/03/24 07:11:39;;;;;;;85.03;52.42;;;;;;;1.67;66.52;98391.34;10330326;28;20065;-61
2022/03/24 07:16:38;;;;;;;74.00;49.45;;;;;;;1.66;65.17;98363.13;10332294;28;20037;-61
2022/03/24 07:21:37;;;;;;;66.20;42.42;;;;;;;2.30;63.41;98421.31;10332821;28;20120;-61
2022/03/24 07:26:36;;;;;;;66.20;41.63;;;;;;;2.65;62.98;98412.53;10333033;28;20476;-61
2022/03/24 07:31:36;;;;;;;64.60;38.28;;;;;;;2.57;61.05;98352.44;10332250;28;20520;-61
2022/03/24 07:36:35;;;;;;;77.78;45.50;;;;;;;3.23;59.72;98396.00;10332114;28;20076;-60
2022/03/24 07:41:34;;;;;;;65.82;40.58;;;;;;;3.57;58.71;98397.28;10332113;28;20061;-60
2022/03/24 07:46:34;;;;;;;57.08;36.10;;;;;;;3.88;57.38;98400.97;10332350;28;20073;-61
2022/03/24 07:51:34;;;;;;;50.40;30.90;;;;;;;4.13;57.05;98392.41;10332350;28;20088;-61
2022/03/24 07:56:34;;;;;;;44.40;27.20;;;;;;;4.46;56.30;98390.13;10331311;28;20053;-61
2022/03/24 08:01:35;;;;;;;36.78;22.73;;;;;;;4.82;55.85;98384.44;10331741;28;20087;-61
2022/03/24 08:06:35;;;;;;;34.22;18.17;;;;;;;5.03;55.01;98394.56;10331642;28;20056;-61
2022/03/24 08:11:34;;;;;;;33.33;19.30;;;;;;;5.41;54.93;98388.00;10330836;28;20061;-61
2022/03/24 08:16:33;;;;;;;39.70;21.00;;;;;;;5.73;54.62;98385.47;10331074;28;20029;-61
2022/03/24 08:21:32;;;;;;;33.72;22.00;;;;;;;6.04;54.35;98391.47;10330983;28;20462;-61
2022/03/24 08:26:31;;;;;;;28.73;16.27;;;;;;;6.21;51.82;98351.59;10330003;28;20036;-61
2022/03/24 08:31:30;;;;;;;37.13;18.13;;;;;;;6.62;50.91;98372.38;10329341;28;20503;-61
2022/03/24 08:36:29;;;;;;;;;;;;;;;6.96;50.59;98375.75;10331078;28;20095;-61
2022/03/24 08:41:28;;;;;;;34.58;21.13;;;;;;;7.25;49.53;98363.50;10330770;28;20293;-61
2022/03/24 08:46:27;;;;;;;36.05;21.90;;;;;;;7.56;48.61;98361.59;10331132;28;20051;-61
2022/03/24 08:51:27;;;;;;;36.10;23.80;;;;;;;7.95;47.90;98355.50;10330358;28;20479;-60
2022/03/24 08:56:26;;;;;;;50.50;32.22;;;;;;;8.34;46.12;98350.19;10329770;28;20518;-61
2022/03/24 09:01:28;;;;;;;55.85;38.97;;;;;;;8.73;45.70;98333.56;10330186;28;20065;-60
2022/03/24 09:06:27;;;;;;;52.45;32.80;;;;;;;9.14;45.20;98336.78;10330091;28;20410;-61
2022/03/24 09:11:26;;;;;;;50.70;27.20;;;;;;;9.50;43.83;98324.31;10329890;28;20585;-61
2022/03/24 09:16:25;;;;;;;37.08;26.55;;;;;;;9.92;42.68;98320.47;10330060;28;20056;-61
2022/03/24 09:21:24;;;;;;;38.88;24.73;;;;;;;10.21;41.50;98292.22;10330180;28;20065;-61
2022/03/24 09:26:23;;;;;;;38.67;23.10;;;;;;;10.77;40.56;98302.19;10329684;28;20064;-61
2022/03/24 09:31:22;;;;;;;19.40;11.63;;;;;;;11.21;37.42;98290.38;10328148;28;20552;-61
2022/03/24 09:36:22;;;;;;;14.65;9.50;;;;;;;11.62;36.16;98289.72;10329228;28;20511;-61
2022/03/24 09:41:21;;;;;;;16.73;11.02;;;;;;;11.99;34.55;98300.19;10336215;28;20068;-61
2022/03/24 09:46:20;;;;;;;15.20;9.48;;;;;;;12.33;32.54;98280.31;10336627;28;20582;-61
2022/03/24 09:51:22;;;;;;;15.05;9.18;;;;;;;12.61;31.90;98281.19;10336334;28;20480;-61
2022/03/24 09:56:21;;;;;;;16.70;9.70;;;;;;;12.88;30.22;98269.88;10335959;28;20080;-61
2022/03/24 10:01:20;;;;;;;17.90;10.02;;;;;;;13.28;31.14;98268.88;10336318;28;20025;-61
2022/03/24 10:06:19;;;;;;;17.95;10.85;;;;;;;12.91;29.22;98164.81;10335727;28;20483;-61
2022/03/24 10:11:18;;;;;;;16.00;9.93;;;;;;;13.75;28.10;98247.84;10335921;28;20450;-61
2022/03/24 10:16:32;;;;;;;27.33;11.30;;;;;;;14.09;28.13;98241.53;10335111;28;20033;-61
2022/03/24 10:21:33;;;;;;;18.60;9.23;;;;;;;14.36;27.95;98236.09;10335408;28;20061;-61
2022/03/24 10:27:03;;;;;;;19.67;11.32;;;;;;;14.55;27.70;98222.88;10334953;28;20053;-61
2022/03/24 10:32:04;;;;;;;13.85;10.07;;;;;;;14.66;25.15;98221.00;10293847;28;20072;-61
2022/03/24 10:37:09;;;;;;;17.48;8.52;;;;;;;14.82;24.81;98209.56;10294018;28;20061;-61
2022/03/24 10:42:15;;;;;;;16.95;9.30;;;;;;;14.93;23.84;98209.44;10310777;28;20444;-61
2022/03/24 10:47:39;;;;;;;14.07;9.10;;;;;;;15.03;25.33;98194.53;10334269;28;20073;-61
2022/03/24 10:52:38;;;;;;;17.13;9.45;;;;;;;15.22;25.45;98187.31;10333666;28;20061;-61
2022/03/24 10:57:39;;;;;;;15.48;9.48;;;;;;;15.09;24.75;98112.56;10318802;28;20036;-61
2022/03/24 11:02:38;;;;;;;14.05;9.45;;;;;;;15.70;24.68;98176.22;10334032;28;20068;-61
2022/03/24 11:07:36;;;;;;;14.55;8.73;;;;;;;15.78;25.08;98148.16;10333296;28;20029;-61
2022/03/24 11:12:38;;;;;;;17.42;9.75;;;;;;;15.95;24.02;98147.94;10333612;28;20506;-61
2022/03/24 11:17:38;;;;;;;18.17;9.55;;;;;;;16.25;23.21;98146.53;10333621;28;20080;-61
2022/03/24 11:22:46;;;;;;;24.90;10.80;;;;;;;16.41;22.36;98123.56;10332900;28;20064;-61
2022/03/24 11:27:46;;;;;;;13.13;8.18;;;;;;;16.37;22.22;98065.16;10333333;28;20068;-61
2022/03/24 11:32:47;;;;;;;22.45;12.40;;;;;;;16.66;22.98;98089.91;10332573;28;20115;-61
2022/03/24 11:37:48;;;;;;;10.57;6.88;;;;;;;16.97;20.02;98115.53;10332594;28;20076;-61
2022/03/24 11:42:54;;;;;;;15.05;7.72;;;;;;;17.04;20.66;98101.38;10332591;28;20079;-62
2022/03/24 11:48:01;;;;;;;10.82;7.65;;;;;;;17.08;18.19;98105.69;10331151;28;20065;-61
2022/03/24 11:53:18;;;;;;;17.70;9.48;;;;;;;17.09;20.78;98091.66;10332222;28;20064;-61
2022/03/24 11:58:17;;;;;;;21.35;12.27;;;;;;;17.25;20.22;98082.56;10331789;28;20083;-61
2022/03/24 12:03:45;;;;;;;;;;;;;;;17.43;18.34;98086.53;10331815;28;20026;-61
2022/03/24 12:08:51;;;;;;;14.68;7.05;;;;;;;17.46;16.96;98082.97;10326980;28;19956;-61
2022/03/24 12:14:00;;;;;;;13.68;6.15;;;;;;;17.46;17.21;98069.84;10331369;28;20515;-61
2022/03/24 12:19:00;;;;;;;;;;;;;;;17.59;16.29;98066.03;10330839;28;20486;-61
2022/03/24 12:24:02;;;;;;;10.27;5.22;;;;;;;17.67;14.66;98074.56;10331975;28;19956;-61
2022/03/24 12:29:13;;;;;;;13.00;6.85;;;;;;;17.70;16.19;98068.38;10331769;28;20446;-61
2022/03/24 12:34:13;;;;;;;13.07;5.97;;;;;;;17.30;15.52;97986.25;10330824;28;20065;-61
2022/03/24 12:39:28;;;;;;;8.63;5.35;;;;;;;17.84;15.34;98060.19;10331073;28;20068;-61
2022/03/24 12:44:54;;;;;;;10.63;6.28;;;;;;;17.66;15.41;98025.63;10289978;28;20479;-62
2022/03/24 12:49:59;;;;;;;11.63;7.72;;;;;;;17.75;14.18;98050.75;10289879;28;20068;-62
2022/03/24 12:54:58;;;;;;;7.65;5.13;;;;;;;17.71;13.61;98038.63;10290421;28;20084;-61
2022/03/24 12:59:57;;;;;;;9.23;5.93;;;;;;;17.93;14.05;98033.72;10289561;28;20026;-62
2022/03/24 13:04:58;;;;;;;10.85;5.53;;;;;;;17.85;13.76;98033.91;10290486;28;20069;-61
2022/03/24 13:10:09;;;;;;;8.27;4.60;;;;;;;18.07;12.34;98023.69;10289684;28;20053;-62
2022/03/24 13:15:17;;;;;;;6.75;4.00;;;;;;;17.61;12.57;97933.00;10303222;28;20072;-62
2022/03/24 13:20:24;;;;;;;11.38;5.53;;;;;;;18.10;15.03;98025.38;10337336;28;20574;-62
2022/03/24 13:25:24;;;;;;;8.45;4.70;;;;;;;18.06;14.00;98013.22;10337422;28;20065;-62
2022/03/24 13:30:25;;;;;;;12.15;6.15;;;;;;;18.07;14.95;98015.81;10320006;28;20065;-62
2022/03/24 13:35:26;;;;;;;13.52;7.07;;;;;;;18.15;15.53;98002.47;10296551;28;20062;-61
2022/03/24 13:40:37;;;;;;;10.15;6.05;;;;;;;18.23;13.95;97997.03;10296206;28;20470;-61
2022/03/24 13:45:37;;;;;;;8.30;5.28;;;;;;;18.18;13.25;97990.13;10296435;28;20482;-60
2022/03/24 13:50:38;;;;;;;8.98;4.50;;;;;;;18.22;13.31;97976.91;10319236;28;20061;-60
2022/03/24 13:55:37;;;;;;;9.25;4.97;;;;;;;18.29;13.07;97968.81;10336012;28;20487;-62
2022/03/24 14:00:42;;;;;;;9.25;4.95;;;;;;;18.22;13.80;97963.75;10336124;28;20067;-62
2022/03/24 14:05:49;;;;;;;8.75;6.43;;;;;;;18.28;14.89;97935.56;10336444;28;20064;-60
2022/03/24 14:10:54;;;;;;;10.95;5.50;;;;;;;18.29;14.79;97953.06;10336532;28;20049;-60
2022/03/24 14:16:16;;;;;;;13.38;7.50;;;;;;;17.65;14.08;97834.06;10335015;28;20060;-61
2022/03/24 14:21:18;;;;;;;14.07;6.95;;;;;;;18.13;13.68;97909.75;10335515;28;20053;-62
2022/03/24 14:26:17;;;;;;;13.95;9.40;;;;;;;18.37;13.66;97937.91;10333922;28;20061;-62
2022/03/24 14:31:16;;;;;;;13.57;8.85;;;;;;;18.30;13.75;97932.91;10335260;28;20446;-61
2022/03/24 14:36:17;;;;;;;15.95;7.93;;;;;;;17.71;13.76;97834.75;10334386;28;20072;-61
2022/03/24 14:41:16;;;;;;;19.17;10.40;;;;;;;18.12;13.21;97923.78;10334811;28;20057;-61
2022/03/24 14:46:15;;;;;;;16.45;10.63;;;;;;;18.10;14.63;97920.31;10334855;28;20051;-61
2022/03/24 14:51:14;;;;;;;10.93;6.43;;;;;;;17.57;15.36;97826.44;10334017;28;20486;-61
2022/03/24 14:56:13;;;;;;;13.70;7.68;;;;;;;17.83;14.40;97895.72;10334334;28;20487;-60
2022/03/24 15:01:12;;;;;;;;;;;;;;;17.94;14.23;97906.75;10334082;28;20021;-60
2022/03/24 15:06:11;;;;;;;19.03;9.10;;;;;;;17.75;14.95;97861.75;10333912;28;19912;-60
2022/03/24 15:11:11;;;;;;;18.77;13.38;;;;;;;17.76;14.84;97885.38;10333602;28;20057;-60
2022/03/24 15:16:10;;;;;;;17.13;9.23;;;;;;;17.81;14.76;97911.50;10333475;28;20057;-60
2022/03/24 15:21:09;;;;;;;;;;;;;;;17.67;14.79;97905.75;10333562;28;20021;-60
2022/03/24 15:26:08;;;;;;;13.20;7.70;;;;;;;17.55;14.54;97896.44;10332814;28;19915;-60
2022/03/24 15:31:07;;;;;;;;;;;;;;;17.47;14.47;97898.41;10333019;28;20021;-60
2022/03/24 15:36:06;;;;;;;13.30;5.57;;;;;;;17.34;13.63;97895.25;10331940;28;19960;-60
2022/03/24 15:41:05;;;;;;;;;;;;;;;17.46;14.24;97894.06;10332801;28;20071;-60
2022/03/24 15:46:04;;;;;;;15.00;8.50;;;;;;;17.30;14.41;97870.84;10331986;28;20264;-60
2022/03/24 15:51:03;;;;;;;;;;;;;;;17.33;14.88;97891.78;10332129;28;20457;-60
2022/03/24 15:56:03;;;;;;;13.57;7.57;;;;;;;17.03;15.02;97893.41;10331104;28;20363;-59
2022/03/24 16:01:02;;;;;;;16.35;8.88;;;;;;;16.81;15.36;97893.03;10331501;28;20479;-59
2022/03/24 16:06:01;;;;;;;;;;;;;;;16.65;16.23;97899.50;10330610;28;20060;-59
2022/03/24 16:11:00;;;;;;;21.23;11.47;;;;;;;16.34;16.20;97896.72;10291507;28;19948;-59
2022/03/24 16:15:59;;;;;;;22.10;12.80;;;;;;;16.24;16.56;97896.06;10305786;28;20053;-59
2022/03/24 16:20:58;;;;;;;69.07;56.35;;;;;;;16.02;16.53;97895.66;10322641;28;20058;-59
2022/03/24 16:25:57;;;;;;;;;;;;;;;15.97;17.36;97906.22;10291106;28;20097;-60
2022/03/24 16:30:56;;;;;;;29.85;19.55;;;;;;;15.88;18.91;97906.41;10291812;28;19968;-60
2022/03/24 16:35:57;;;;;;;30.42;15.50;;;;;;;15.25;19.86;97881.41;10289461;28;20503;-60
2022/03/24 16:40:56;;;;;;;30.73;19.10;;;;;;;15.05;20.11;97915.72;10289855;28;20058;-60
2022/03/24 16:45:55;;;;;;;34.78;18.92;;;;;;;14.62;20.38;97926.81;10289632;28;20045;-60
2022/03/24 16:50:54;;;;;;;28.23;14.95;;;;;;;14.17;21.40;97922.19;10296657;28;20033;-61
2022/03/24 16:55:52;;;;;;;34.28;18.20;;;;;;;13.77;21.69;97934.81;10297578;28;20038;-62
2022/03/24 17:00:51;;;;;;;27.42;16.63;;;;;;;13.43;22.36;97937.75;10297164;28;20121;-62
2022/03/24 17:05:52;;;;;;;53.22;31.42;;;;;;;13.06;23.16;97938.06;10297300;28;20061;-62
2022/03/24 17:10:51;;;;;;;60.10;25.33;;;;;;;12.71;24.02;97946.13;10336448;28;20467;-62
2022/03/24 17:15:50;;;;;;;41.90;25.02;;;;;;;12.05;24.84;97910.03;10338045;28;20390;-62
2022/03/24 17:20:49;;;;;;;30.73;20.85;;;;;;;12.01;25.90;97960.31;10337568;28;20114;-62
2022/03/24 17:25:48;;;;;;;35.53;25.40;;;;;;;11.71;26.39;97966.47;10327473;28;20503;-62
2022/03/24 17:30:47;;;;;;;29.52;19.15;;;;;;;11.34;26.84;97976.91;10317059;28;20052;-62
2022/03/24 17:35:46;;;;;;;31.83;20.08;;;;;;;11.15;27.48;97991.63;10305095;28;20406;-62
2022/03/24 17:40:45;;;;;;;33.75;21.15;;;;;;;10.94;27.28;97987.28;10336820;28;20064;-62
2022/03/24 17:45:44;;;;;;;34.90;23.80;;;;;;;10.48;27.68;97951.72;10336818;28;20063;-62
2022/03/24 17:50:43;;;;;;;40.35;20.75;;;;;;;10.21;28.57;97957.66;10336323;28;20045;-62
2022/03/24 17:55:42;;;;;;;31.42;18.25;;;;;;;10.00;28.97;97958.44;10336354;28;20026;-62
2022/03/24 18:00:41;;;;;;;60.15;19.35;;;;;;;10.02;28.83;97981.78;10336609;28;20052;-62
2022/03/24 18:05:42;;;;;;;57.25;20.48;;;;;;;9.75;30.08;97973.88;10339331;28;20414;-62
2022/03/24 18:10:41;;;;;;;99.78;66.65;;;;;;;9.77;30.22;98013.63;10339267;28;20053;-62
2022/03/24 18:15:41;;;;;;;56.38;32.75;;;;;;;9.46;31.85;98022.91;10337702;28;20044;-62
2022/03/24 18:20:40;;;;;;;54.20;28.25;;;;;;;9.32;31.73;98021.94;10338487;28;20079;-62
2022/03/24 18:25:39;;;;;;;403.38;178.00;;;;;;;9.17;31.81;98027.81;10338973;28;20032;-62
2022/03/24 18:30:39;;;;;;;126.70;62.38;;;;;;;8.68;31.47;97983.34;10338356;28;20072;-62
2022/03/24 18:35:38;;;;;;;117.85;50.55;;;;;;;8.77;31.70;98019.69;10338589;28;20483;-62
2022/03/24 18:40:37;;;;;;;222.35;103.22;;;;;;;8.14;32.21;97948.28;10338381;28;20481;-62
2022/03/24 18:45:37;;;;;;;136.43;65.53;;;;;;;8.45;32.56;98042.59;10337525;28;20077;-62
2022/03/24 18:50:36;;;;;;;;;;;;;;;8.30;33.98;98046.72;10338223;28;20514;-62
2022/03/24 18:55:35;;;;;;;54.38;33.40;;;;;;;8.15;34.04;98054.28;10337623;28;20383;-62
2022/03/24 19:00:34;;;;;;;81.18;43.15;;;;;;;7.93;33.79;98068.63;10336397;28;20487;-62
2022/03/24 19:05:33;;;;;;;53.28;32.58;;;;;;;7.82;35.59;98070.16;10333809;28;20065;-62
2022/03/24 19:10:32;;;;;;;79.38;50.13;;;;;;;7.25;35.60;98015.91;10333304;28;20470;-62
2022/03/24 19:15:31;;;;;;;63.80;41.38;;;;;;;7.50;35.56;98049.00;10332228;28;20383;-62
2022/03/24 19:20:30;;;;;;;59.78;37.97;;;;;;;7.56;35.13;98080.97;10333249;28;20322;-61
2022/03/24 19:25:29;;;;;;;44.35;30.15;;;;;;;7.55;34.85;98074.06;10333040;28;20058;-62
2022/03/24 19:30:28;;;;;;;37.50;25.55;;;;;;;6.87;34.49;97986.03;10332269;28;20052;-62
2022/03/24 19:35:27;;;;;;;61.33;33.83;;;;;;;7.49;35.18;98081.72;10332810;28;20029;-62
2022/03/24 19:40:26;;;;;;;;;;;;;;;7.41;35.52;98080.72;10333459;28;20853;-62
2022/03/24 19:45:28;;;;;;;67.40;43.92;;;;;;;7.22;35.71;98059.72;10331476;28;20454;-62
2022/03/24 19:50:29;;;;;;;51.08;33.00;;;;;;;7.26;36.03;98065.81;10331855;28;20480;-62
2022/03/24 19:55:28;;;;;;;38.00;22.92;;;;;;;7.18;35.64;98050.19;10332363;28;20084;-61
2022/03/24 20:00:27;;;;;;;76.50;42.05;;;;;;;7.21;35.18;98063.13;10330922;28;20025;-62
2022/03/24 20:05:27;;;;;;;97.05;56.40;;;;;;;7.17;36.18;98057.91;10330520;28;20056;-61
2022/03/24 20:10:26;;;;;;;116.82;65.88;;;;;;;7.12;36.76;98072.44;10331644;28;20064;-62
2022/03/24 20:15:25;;;;;;;;;;;;;;;6.95;37.49;98064.41;10331696;28;20537;-62
2022/03/24 20:20:25;;;;;;;95.88;58.10;;;;;;;6.83;37.52;98077.94;10330574;28;19913;-62
2022/03/24 20:25:24;;;;;;;92.43;56.47;;;;;;;6.60;37.56;98054.28;10277168;28;20093;-62
2022/03/24 20:30:23;;;;;;;69.15;42.75;;;;;;;6.57;38.67;98069.72;10329781;28;20056;-62
2022/03/24 20:35:23;;;;;;;78.75;44.08;;;;;;;6.38;38.63;98051.28;10330824;28;20095;-62
2022/03/24 20:40:22;;;;;;;85.30;49.80;;;;;;;6.36;38.86;98071.00;10329015;28;20069;-61
2022/03/24 20:45:22;;;;;;;72.88;43.97;;;;;;;5.94;38.78;98019.44;10330370;28;20087;-62
2022/03/24 20:50:21;;;;;;;68.28;40.83;;;;;;;6.16;39.08;98069.72;10330592;28;20069;-62
2022/03/24 20:55:20;;;;;;;;;;;;;;;6.05;39.55;98063.47;10331167;28;20127;-61
2022/03/24 21:00:22;;;;;;;69.95;38.35;;;;;;;5.89;40.55;98057.97;10329851;28;20000;-61
2022/03/24 21:05:21;;;;;;;85.97;48.90;;;;;;;5.77;40.97;98052.56;10330565;28;20080;-62
2022/03/24 21:10:21;;;;;;;93.57;54.13;;;;;;;5.74;40.67;98070.50;10328888;28;20072;-61
2022/03/24 21:15:20;;;;;;;;;;;;;;;5.73;41.05;98067.03;10329978;28;20076;-62
2022/03/24 21:20:20;;;;;;;92.65;57.65;;;;;;;5.59;41.62;98070.16;10329817;28;19913;-61
2022/03/24 21:25:19;;;;;;;92.53;53.53;;;;;;;4.79;42.57;97962.69;10330469;28;20084;-61
2022/03/24 21:30:18;;;;;;;96.55;57.03;;;;;;;5.33;42.80;98053.22;10330064;28;20065;-61
2022/03/24 21:35:20;;;;;;;110.20;71.63;;;;;;;5.26;43.10;98059.06;10333170;28;20080;-61
2022/03/24 21:40:20;;;;;;;151.25;89.18;;;;;;;5.17;43.34;98057.97;10336538;28;20076;-61
2022/03/24 21:45:19;;;;;;;131.20;80.82;;;;;;;5.20;43.08;98053.75;10336866;28;20120;-62
2022/03/24 21:50:18;;;;;;;149.40;91.90;;;;;;;5.06;44.02;98055.09;10336591;28;20150;-61
2022/03/24 21:55:17;;;;;;;169.52;102.28;;;;;;;5.04;44.21;98059.34;10334779;28;20045;-61
2022/03/24 22:00:16;;;;;;;177.50;110.22;;;;;;;4.83;45.44;98054.47;10336380;28;20155;-61
2022/03/24 22:05:16;;;;;;;189.15;111.38;;;;;;;4.78;45.41;98048.34;10336466;28;20128;-61
2022/03/24 22:10:15;;;;;;;181.80;102.65;;;;;;;4.70;45.12;98051.59;10335947;28;20029;-62
2022/03/24 22:15:14;;;;;;;169.60;101.13;;;;;;;4.46;46.55;98061.22;10335847;28;20080;-61
2022/03/24 22:20:13;;;;;;;118.30;72.63;;;;;;;4.45;45.96;98049.16;10335577;28;20045;-62
2022/03/24 22:25:12;;;;;;;147.93;87.40;;;;;;;4.09;46.92;98008.78;10335538;28;20457;-61
2022/03/24 22:30:11;;;;;;;214.48;117.90;;;;;;;3.91;45.84;97982.56;10335164;28;20351;-61
2022/03/24 22:35:10;;;;;;;443.27;225.73;;;;;;;3.58;46.43;97963.66;10335265;28;20076;-62
2022/03/24 22:40:10;;;;;;;148.23;87.22;;;;;;;4.22;46.36;98051.09;10334914;28;20076;-61
2022/03/24 22:45:09;;;;;;;151.57;89.60;;;;;;;4.25;46.29;98054.63;10333732;28;20159;-62
2022/03/24 22:50:09;;;;;;;126.65;74.97;;;;;;;3.59;46.56;97954.28;10334315;28;20562;-61
2022/03/24 22:55:08;;;;;;;112.00;61.03;;;;;;;4.10;46.91;98055.88;10334227;28;20072;-61
2022/03/24 23:00:31;;;;;;;104.50;57.80;;;;;;;4.06;47.00;98045.53;10334253;28;20064;-61
2022/03/24 23:05:32;;;;;;;216.68;120.63;;;;;;;3.15;47.66;97915.34;10334945;28;20075;-61